Time;durP1;ratioP1;P1;durP2;ratioP2;P2;SDS_P1;SDS_P2;PMS_P1;PMS_P2;Temp;Humidity;BMP_temperature;BMP_pressure;BME280_temperature;BME280_humidity;BME280_pressure;Samples;Min_cycle;Max_cycle;Signal;HPM_P1;HPM_P2
2021/12/09 00:00:47;;;;;;;48.78;22.55;;;;;;;0.92;84.97;98810.59;5027425;28;20547;-67
2021/12/09 00:03:12;;;;;;;49.65;23.10;;;;;;;0.87;84.94;98815.16;5032182;28;20036;-70
2021/12/09 00:05:42;;;;;;;51.45;23.48;;;;;;;1.00;84.38;98823.91;5032531;28;20033;-68
2021/12/09 00:08:08;;;;;;;52.22;24.67;;;;;;;0.99;85.05;98839.50;5036455;28;20045;-68
2021/12/09 00:10:34;;;;;;;47.88;21.77;;;;;;;1.10;85.04;98842.34;5032808;28;20087;-69
2021/12/09 00:13:00;;;;;;;47.55;22.23;;;;;;;1.17;84.93;98841.97;5030230;28;20029;-68
2021/12/09 00:15:25;;;;;;;48.58;22.85;;;;;;;1.24;84.71;98832.16;5030632;28;20044;-68
2021/12/09 00:17:51;;;;;;;50.28;24.95;;;;;;;1.12;83.87;98830.22;5032118;28;20068;-69
2021/12/09 00:20:18;;;;;;;47.58;21.30;;;;;;;1.11;84.05;98820.78;5032197;28;20045;-68
2021/12/09 00:22:44;;;;;;;46.60;21.95;;;;;;;1.07;84.21;98814.13;5033662;28;20033;-69
2021/12/09 00:25:09;;;;;;;45.42;23.38;;;;;;;1.03;84.10;98810.88;5032754;28;20414;-72
2021/12/09 00:27:34;;;;;;;41.45;21.05;;;;;;;1.04;84.74;98811.69;5036365;28;20029;-67
2021/12/09 00:29:59;;;;;;;46.05;21.63;;;;;;;1.05;84.80;98815.97;5015374;28;20083;-68
2021/12/09 00:32:25;;;;;;;42.67;20.80;;;;;;;1.06;84.54;98810.72;5030540;28;20482;-67
2021/12/09 00:34:52;;;;;;;46.20;22.00;;;;;;;1.11;84.53;98811.31;5031042;28;20100;-67
2021/12/09 00:37:25;;;;;;;42.15;20.50;;;;;;;1.13;84.30;98816.41;5016556;28;20037;-68
2021/12/09 00:39:51;;;;;;;53.13;24.38;;;;;;;1.16;84.21;98826.56;5028747;28;20048;-70
2021/12/09 00:42:19;;;;;;;49.40;22.88;;;;;;;1.14;84.13;98818.88;5027886;28;20033;-68
2021/12/09 00:44:44;;;;;;;46.22;21.65;;;;;;;1.17;84.06;98813.56;5043173;28;20045;-67
2021/12/09 00:47:09;;;;;;;48.67;20.55;;;;;;;1.20;83.64;98818.56;5019158;28;20473;-68
2021/12/09 00:49:34;;;;;;;46.22;21.20;;;;;;;1.20;84.29;98823.72;5029781;28;20038;-68
2021/12/09 00:52:01;;;;;;;45.72;21.05;;;;;;;1.22;84.11;98826.22;5013105;28;20465;-67
2021/12/09 00:54:27;;;;;;;42.63;20.65;;;;;;;1.20;83.70;98828.91;5013540;28;20030;-68
2021/12/09 00:56:52;;;;;;;47.30;21.90;;;;;;;1.21;83.98;98827.16;5031606;28;20494;-69
2021/12/09 00:59:18;;;;;;;43.47;20.83;;;;;;;1.21;84.08;98827.97;5031330;28;20053;-68
2021/12/09 01:01:43;;;;;;;52.60;22.80;;;;;;;1.20;84.45;98813.41;5036843;28;20474;-68
2021/12/09 01:04:08;;;;;;;43.65;20.70;;;;;;;1.19;84.42;98809.16;5036381;28;20055;-68
2021/12/09 01:06:34;;;;;;;47.55;21.67;;;;;;;1.24;83.98;98818.41;5022439;28;20495;-68
2021/12/09 01:08:59;;;;;;;48.85;22.50;;;;;;;1.30;84.21;98818.06;5027504;28;20026;-68
2021/12/09 01:11:25;;;;;;;47.38;21.77;;;;;;;1.29;83.88;98821.56;5033820;28;20033;-68
2021/12/09 01:13:50;;;;;;;47.10;20.98;;;;;;;1.30;83.45;98834.41;5048923;28;20044;-70
2021/12/09 01:16:16;;;;;;;44.80;21.83;;;;;;;1.29;84.14;98834.50;5033249;28;20140;-68
2021/12/09 01:18:42;;;;;;;46.90;22.58;;;;;;;1.23;84.02;98842.56;5037222;28;20133;-69
2021/12/09 01:21:09;;;;;;;47.05;22.95;;;;;;;1.27;84.45;98839.75;5027464;28;20502;-69
2021/12/09 01:23:36;;;;;;;51.63;23.50;;;;;;;1.24;84.68;98845.06;5028045;28;20030;-69
2021/12/09 01:26:04;;;;;;;51.25;24.58;;;;;;;1.22;84.31;98833.97;5027982;28;20029;-68
2021/12/09 01:28:34;;;;;;;58.55;25.33;;;;;;;1.24;84.48;98839.91;5026098;28;20469;-68
2021/12/09 01:31:05;;;;;;;56.85;25.52;;;;;;;1.16;84.14;98827.38;5028616;28;20682;-68
2021/12/09 01:33:32;;;;;;;44.85;21.70;;;;;;;1.15;84.17;98836.06;5029314;28;20014;-68
2021/12/09 01:35:58;;;;;;;50.10;22.75;;;;;;;1.15;84.81;98840.34;5028017;28;20025;-68
2021/12/09 01:38:27;;;;;;;55.58;23.75;;;;;;;1.08;84.71;98842.44;5028544;28;20056;-68
2021/12/09 01:40:53;;;;;;;49.50;23.42;;;;;;;1.07;84.62;98837.34;5030822;28;20503;-69
2021/12/09 01:43:18;;;;;;;41.88;21.85;;;;;;;1.01;84.95;98832.53;5028505;28;20087;-68
2021/12/09 01:45:43;;;;;;;50.17;23.02;;;;;;;0.95;84.62;98841.41;5029399;28;20040;-69
2021/12/09 01:48:09;;;;;;;57.70;23.65;;;;;;;0.97;85.20;98849.91;5030457;28;20017;-70
2021/12/09 01:50:35;;;;;;;51.40;23.80;;;;;;;1.05;85.19;98852.91;5028797;28;20116;-68
2021/12/09 01:53:07;;;;;;;51.13;23.20;;;;;;;1.06;85.31;98856.34;5028111;28;20022;-68
2021/12/09 01:55:33;;;;;;;47.28;22.50;;;;;;;1.06;85.46;98867.50;5029182;28;20033;-69
2021/12/09 01:58:00;;;;;;;53.45;22.90;;;;;;;1.05;85.38;98863.25;5026618;28;20041;-67
2021/12/09 02:00:29;;;;;;;44.42;22.80;;;;;;;1.03;85.38;98861.66;5029179;28;20108;-69
2021/12/09 02:02:55;;;;;;;44.38;22.27;;;;;;;1.05;85.31;98860.66;5029430;28;20032;-68
2021/12/09 02:05:21;;;;;;;47.15;22.25;;;;;;;1.06;85.49;98861.50;5028948;28;20029;-69
2021/12/09 02:07:47;;;;;;;54.90;25.27;;;;;;;1.02;85.21;98859.97;5028232;28;20036;-68
2021/12/09 02:10:16;;;;;;;53.03;24.45;;;;;;;0.96;84.97;98859.41;5028794;28;20029;-70
2021/12/09 02:12:41;;;;;;;47.60;23.67;;;;;;;1.00;84.94;98852.31;5028587;28;20020;-68
2021/12/09 02:15:08;;;;;;;52.72;23.42;;;;;;;0.95;85.05;98849.13;5028312;28;20025;-67
2021/12/09 02:17:34;;;;;;;47.72;23.10;;;;;;;0.94;85.34;98837.16;5029015;28;20056;-68
2021/12/09 02:20:01;;;;;;;53.30;24.17;;;;;;;0.98;85.33;98832.66;5030334;28;20358;-68
2021/12/09 02:22:28;;;;;;;49.58;22.45;;;;;;;1.01;84.85;98830.78;5027431;28;20411;-68
2021/12/09 02:24:55;;;;;;;48.03;23.50;;;;;;;0.99;85.50;98827.41;5028866;28;20388;-67
2021/12/09 02:27:22;;;;;;;50.78;24.73;;;;;;;1.03;85.08;98834.09;5021834;28;20029;-68
2021/12/09 02:29:48;;;;;;;51.53;22.95;;;;;;;1.01;85.44;98827.34;5027301;28;20552;-68
2021/12/09 02:32:13;;;;;;;50.15;23.48;;;;;;;1.02;85.10;98834.19;5027845;28;20450;-68
2021/12/09 02:34:39;;;;;;;49.97;23.42;;;;;;;1.01;85.05;98829.94;5028432;28;20033;-69
2021/12/09 02:37:04;;;;;;;51.90;23.75;;;;;;;1.01;85.00;98830.78;5027613;28;20072;-69
2021/12/09 02:39:30;;;;;;;58.25;25.35;;;;;;;0.96;85.15;98818.09;5025538;28;20021;-69
2021/12/09 02:41:56;;;;;;;52.85;24.00;;;;;;;0.91;85.24;98827.81;5029122;28;20057;-70
2021/12/09 02:44:22;;;;;;;48.53;23.92;;;;;;;0.91;85.07;98840.72;5014529;28;20129;-70
2021/12/09 02:46:51;;;;;;;54.08;24.60;;;;;;;0.85;85.03;98838.44;5028668;28;20040;-69
2021/12/09 02:49:19;;;;;;;57.15;23.48;;;;;;;0.83;85.11;98842.03;5023115;28;20053;-68
2021/12/09 02:51:48;;;;;;;51.45;23.30;;;;;;;0.85;85.39;98848.75;5028428;28;20030;-67
2021/12/09 02:54:16;;;;;;;55.70;25.47;;;;;;;0.86;85.53;98847.03;5023184;28;20507;-67
2021/12/09 02:56:44;;;;;;;49.75;23.10;;;;;;;0.89;85.64;98842.56;5024984;28;20267;-70
2021/12/09 02:59:09;;;;;;;50.55;23.75;;;;;;;0.83;85.71;98835.13;5028533;28;20078;-68
2021/12/09 03:01:38;;;;;;;52.75;25.10;;;;;;;0.79;85.39;98827.63;5028223;28;20458;-68
2021/12/09 03:04:05;;;;;;;55.45;24.85;;;;;;;0.83;85.16;98834.28;5028757;28;20056;-70
2021/12/09 03:06:37;;;;;;;49.20;23.48;;;;;;;0.79;85.54;98836.19;5030135;28;20021;-70
2021/12/09 03:09:11;;;;;;;49.13;23.25;;;;;;;0.78;86.13;98836.25;5031337;28;20037;-69
2021/12/09 03:11:37;;;;;;;55.53;25.35;;;;;;;0.75;85.26;98846.75;5031937;28;20041;-70
2021/12/09 03:14:03;;;;;;;53.03;23.75;;;;;;;0.73;85.29;98850.22;5031133;28;20159;-68
2021/12/09 03:16:29;;;;;;;51.53;24.85;;;;;;;0.79;85.78;98861.97;5031360;28;20506;-69
2021/12/09 03:18:59;;;;;;;50.83;23.92;;;;;;;0.81;86.09;98869.63;5032344;28;20157;-68
2021/12/09 03:21:29;;;;;;;55.55;24.48;;;;;;;0.83;85.80;98878.97;5032029;28;20513;-70
2021/12/09 03:23:56;;;;;;;52.53;24.45;;;;;;;0.84;84.78;98874.66;5032590;28;20108;-69
2021/12/09 03:26:29;;;;;;;52.63;25.23;;;;;;;0.72;85.63;98865.78;5028087;28;20038;-69
2021/12/09 03:28:56;;;;;;;53.42;24.75;;;;;;;0.70;85.74;98865.00;5030888;28;20380;-70
2021/12/09 03:31:22;;;;;;;57.03;24.58;;;;;;;0.70;85.86;98870.16;5032004;28;20041;-70
2021/12/09 03:33:47;;;;;;;60.75;26.77;;;;;;;0.67;86.18;98867.75;5031315;28;20387;-69
2021/12/09 03:36:13;;;;;;;57.13;24.92;;;;;;;0.66;86.46;98866.06;5032795;28;20025;-67
2021/12/09 03:38:39;;;;;;;57.88;24.98;;;;;;;0.66;86.23;98863.50;5027928;28;20042;-69
2021/12/09 03:41:04;;;;;;;52.78;24.02;;;;;;;0.68;85.90;98856.53;5030352;28;20037;-68
2021/12/09 03:43:30;;;;;;;55.63;24.30;;;;;;;0.73;86.18;98864.84;5031698;28;20526;-68
2021/12/09 03:45:56;;;;;;;52.47;23.63;;;;;;;0.70;85.90;98883.06;5030864;28;20499;-70
2021/12/09 03:48:26;;;;;;;51.83;23.70;;;;;;;0.69;86.30;98884.81;5034826;28;20023;-68
2021/12/09 03:50:53;;;;;;;56.33;24.60;;;;;;;0.77;86.22;98891.34;5031083;28;20145;-68
2021/12/09 03:53:19;;;;;;;55.83;25.52;;;;;;;0.75;86.26;98894.00;5033230;28;20029;-68
2021/12/09 03:55:44;;;;;;;57.28;24.75;;;;;;;0.75;86.13;98880.28;5031796;28;20034;-68
2021/12/09 03:58:10;;;;;;;52.53;23.63;;;;;;;0.71;86.10;98870.09;5032402;28;20076;-68
2021/12/09 04:00:35;;;;;;;55.42;26.00;;;;;;;0.72;86.45;98861.44;5031662;28;20389;-69
2021/12/09 04:03:01;;;;;;;50.17;24.38;;;;;;;0.71;86.17;98849.47;5032082;28;20052;-68
2021/12/09 04:05:26;;;;;;;58.53;25.98;;;;;;;0.63;85.82;98845.59;5031180;28;20025;-68
2021/12/09 04:07:52;;;;;;;58.88;27.20;;;;;;;0.68;86.25;98866.84;5031184;28;20037;-68
2021/12/09 04:10:17;;;;;;;54.65;25.67;;;;;;;0.69;86.17;98877.06;5032181;28;20048;-68
2021/12/09 04:12:42;;;;;;;53.65;24.88;;;;;;;0.72;86.58;98871.75;5029687;28;20043;-67
2021/12/09 04:15:08;;;;;;;56.22;25.08;;;;;;;0.69;86.04;98869.34;5032008;28;20017;-68
2021/12/09 04:17:34;;;;;;;55.50;24.83;;;;;;;0.69;86.26;98873.66;5033061;28;20488;-68
2021/12/09 04:20:00;;;;;;;57.05;25.45;;;;;;;0.71;85.98;98874.44;5034140;28;20030;-68
2021/12/09 04:22:25;;;;;;;57.67;26.23;;;;;;;0.76;85.69;98867.28;5029151;28;20038;-68
2021/12/09 04:24:52;;;;;;;55.63;25.38;;;;;;;0.77;85.44;98876.69;5030822;28;20045;-67
2021/12/09 04:27:18;;;;;;;50.30;25.17;;;;;;;0.82;85.34;98871.31;5025597;28;20083;-70
2021/12/09 04:29:44;;;;;;;57.72;25.80;;;;;;;0.79;85.11;98854.25;5031856;28;20388;-68
2021/12/09 04:32:09;;;;;;;56.67;25.63;;;;;;;0.81;85.31;98849.81;5025501;28;20095;-69
2021/12/09 04:34:34;;;;;;;59.38;25.58;;;;;;;0.81;85.37;98860.16;5030738;28;20030;-70
2021/12/09 04:37:00;;;;;;;56.33;24.05;;;;;;;0.84;85.30;98861.75;5030041;28;20021;-68
2021/12/09 04:39:26;;;;;;;50.70;25.33;;;;;;;0.86;85.21;98862.50;5027481;28;20025;-67
2021/12/09 04:41:54;;;;;;;50.40;23.38;;;;;;;0.84;84.69;98857.41;5031491;28;20072;-67
2021/12/09 04:44:19;;;;;;;50.78;25.55;;;;;;;0.89;84.69;98860.63;5031080;28;20112;-68
2021/12/09 04:46:44;;;;;;;52.05;25.05;;;;;;;0.92;84.54;98847.53;5029887;28;20061;-69
2021/12/09 04:49:10;;;;;;;55.35;25.20;;;;;;;0.92;84.57;98836.38;5030937;28;20037;-68
2021/12/09 04:51:35;;;;;;;57.65;25.75;;;;;;;0.95;84.39;98841.41;5029283;28;20021;-71
2021/12/09 04:54:02;;;;;;;52.97;24.55;;;;;;;0.94;84.76;98848.31;5031060;28;20089;-68
2021/12/09 04:56:27;;;;;;;58.55;26.38;;;;;;;0.95;84.52;98854.28;5030774;28;20040;-70
2021/12/09 04:58:53;;;;;;;50.58;25.08;;;;;;;0.97;84.33;98860.22;5031198;28;20026;-68
2021/12/09 05:01:19;;;;;;;55.50;25.92;;;;;;;0.96;84.42;98859.41;5023128;28;20040;-69
2021/12/09 05:03:47;;;;;;;60.45;26.50;;;;;;;0.99;84.09;98870.47;5030790;28;20089;-67
2021/12/09 05:06:12;;;;;;;51.27;25.40;;;;;;;0.99;84.09;98875.63;5031578;28;20039;-73
2021/12/09 05:08:44;;;;;;;54.83;24.95;;;;;;;1.01;83.99;98879.81;5030509;28;20695;-68
2021/12/09 05:11:16;;;;;;;54.42;25.20;;;;;;;1.04;83.59;98892.56;5030385;28;20030;-69
2021/12/09 05:13:41;;;;;;;60.47;25.77;;;;;;;1.08;83.88;98895.81;5029239;28;20033;-68
2021/12/09 05:16:08;;;;;;;53.72;25.05;;;;;;;1.08;83.57;98906.97;5028788;28;20163;-69
2021/12/09 05:18:37;;;;;;;58.17;26.63;;;;;;;1.10;84.29;98907.72;5029320;28;20434;-69
2021/12/09 05:21:05;;;;;;;58.15;25.30;;;;;;;1.06;83.88;98902.78;5029875;28;20414;-70
2021/12/09 05:23:30;;;;;;;56.38;24.52;;;;;;;1.02;84.08;98899.53;5025324;28;20029;-69
2021/12/09 05:25:55;;;;;;;55.33;25.25;;;;;;;1.05;84.05;98912.28;5028922;28;20036;-68
2021/12/09 05:28:29;;;;;;;57.42;25.90;;;;;;;1.06;83.87;98903.63;5030636;28;20471;-69
2021/12/09 05:33:38;;;;;;;53.83;25.88;;;;;;;1.00;84.42;98892.75;5030359;28;20021;-68
2021/12/09 05:36:04;;;;;;;48.75;23.05;;;;;;;1.02;84.23;98886.63;5031078;28;20442;-67
2021/12/09 05:38:29;;;;;;;57.67;25.42;;;;;;;1.01;84.04;98879.81;5030661;28;20380;-69
2021/12/09 05:40:54;;;;;;;53.75;25.45;;;;;;;1.00;84.27;98875.53;5030395;28;20056;-67
2021/12/09 05:43:20;;;;;;;46.80;24.23;;;;;;;1.01;84.07;98881.56;5030186;28;20034;-69
2021/12/09 05:45:47;;;;;;;58.20;25.95;;;;;;;1.03;84.16;98890.03;5030942;28;20049;-69
2021/12/09 05:48:13;;;;;;;58.67;25.75;;;;;;;1.06;84.56;98890.72;5029618;28;20097;-68
2021/12/09 05:50:40;;;;;;;58.75;25.65;;;;;;;1.05;84.93;98896.78;5050358;22;20041;-69
2021/12/09 05:53:06;;;;;;;52.55;25.60;;;;;;;1.06;84.27;98892.47;5047821;28;20029;-68
2021/12/09 05:55:32;;;;;;;62.13;25.63;;;;;;;1.11;85.15;98903.38;5048899;28;20033;-67
2021/12/09 05:57:58;;;;;;;54.55;25.88;;;;;;;1.16;84.48;98909.16;5045553;28;20090;-70
2021/12/09 06:00:23;;;;;;;60.88;24.55;;;;;;;1.15;84.67;98903.16;5048517;28;20092;-68
2021/12/09 06:02:48;;;;;;;57.22;26.48;;;;;;;1.14;83.79;98909.22;5049263;28;20029;-68
2021/12/09 06:05:14;;;;;;;57.10;25.25;;;;;;;1.28;85.06;98923.19;5048598;28;20116;-67
2021/12/09 06:07:39;;;;;;;53.75;24.13;;;;;;;1.41;84.86;98917.31;5047975;28;20037;-67
2021/12/09 06:10:05;;;;;;;56.67;27.20;;;;;;;1.43;83.23;98919.81;5046559;28;20484;-69
2021/12/09 06:12:31;;;;;;;58.60;26.00;;;;;;;1.35;82.62;98915.03;5049347;28;20017;-67
2021/12/09 06:14:57;;;;;;;52.67;25.45;;;;;;;1.25;83.81;98903.50;5048536;28;20497;-67
2021/12/09 06:17:22;;;;;;;53.97;25.50;;;;;;;1.19;83.78;98920.16;5048599;28;20509;-67
2021/12/09 06:19:48;;;;;;;51.42;25.45;;;;;;;1.19;83.33;98925.34;5050015;28;20128;-69
2021/12/09 06:22:13;;;;;;;57.70;26.13;;;;;;;1.11;83.52;98927.47;5047552;28;20064;-67
2021/12/09 06:24:38;;;;;;;57.00;26.38;;;;;;;1.12;84.41;98930.88;5046124;28;20065;-68
2021/12/09 06:27:06;;;;;;;54.22;26.30;;;;;;;1.12;84.25;98930.88;5048005;28;20025;-68
2021/12/09 06:29:32;;;;;;;52.95;26.80;;;;;;;1.11;84.80;98942.09;5048071;28;20028;-67
2021/12/09 06:31:58;;;;;;;56.28;27.33;;;;;;;1.10;84.42;98941.25;5041968;28;20017;-68
2021/12/09 06:34:23;;;;;;;57.50;26.85;;;;;;;1.11;84.34;98936.94;5047488;28;20091;-67
2021/12/09 06:36:48;;;;;;;63.88;29.08;;;;;;;1.12;84.82;98943.78;5047452;28;20037;-67
2021/12/09 06:39:14;;;;;;;55.45;28.13;;;;;;;1.14;84.30;98942.78;5049549;28;20050;-67
2021/12/09 06:41:39;;;;;;;68.53;29.00;;;;;;;1.15;84.25;98935.88;5046573;28;20107;-68
2021/12/09 06:44:05;;;;;;;58.80;28.05;;;;;;;1.19;84.29;98940.81;5047944;28;20105;-67
2021/12/09 06:46:30;;;;;;;61.03;28.23;;;;;;;1.17;85.00;98941.81;5046103;28;20061;-67
2021/12/09 06:48:57;;;;;;;65.38;29.60;;;;;;;1.18;84.59;98944.28;5047655;28;20537;-67
2021/12/09 06:51:22;;;;;;;73.22;30.92;;;;;;;1.25;84.82;98944.00;5048373;28;20017;-67
2021/12/09 06:53:47;;;;;;;62.30;30.00;;;;;;;1.26;84.96;98935.31;5047559;28;20056;-67
2021/12/09 06:56:13;;;;;;;65.55;30.02;;;;;;;1.28;84.53;98939.50;5042057;28;20037;-68
2021/12/09 06:58:38;;;;;;;66.55;31.38;;;;;;;1.21;84.94;98953.63;5038722;28;20090;-68
2021/12/09 07:01:05;;;;;;;64.72;28.45;;;;;;;1.23;85.12;98961.31;5042971;28;20055;-67
2021/12/09 07:03:30;;;;;;;72.10;28.88;;;;;;;1.23;85.28;98969.91;5029752;28;20025;-67
2021/12/09 07:06:01;;;;;;;60.45;29.98;;;;;;;1.21;85.32;98974.28;5048129;28;20028;-69
2021/12/09 07:08:26;;;;;;;65.47;29.40;;;;;;;1.23;84.74;98974.22;5043642;28;20041;-68
2021/12/09 07:10:52;;;;;;;67.43;31.08;;;;;;;1.25;85.22;98974.97;5043801;28;20053;-70
2021/12/09 07:13:21;;;;;;;65.28;29.95;;;;;;;1.24;84.61;98974.13;5047282;28;20033;-69
2021/12/09 07:15:46;;;;;;;63.00;29.15;;;;;;;1.21;85.50;98977.69;5045994;28;20517;-67
2021/12/09 07:18:12;;;;;;;65.72;30.42;;;;;;;1.27;84.95;98979.16;5048828;28;20025;-69
2021/12/09 07:20:38;;;;;;;66.57;30.15;;;;;;;1.29;84.94;98977.31;5053703;28;20037;-68
2021/12/09 07:23:03;;;;;;;73.68;31.30;;;;;;;1.26;84.97;98966.31;5047520;28;20033;-68
2021/12/09 07:25:29;;;;;;;58.85;29.67;;;;;;;1.24;85.52;98957.81;5046774;28;20037;-69
2021/12/09 07:27:55;;;;;;;59.42;30.20;;;;;;;1.23;85.05;98958.75;5044439;28;20470;-69
2021/12/09 07:30:22;;;;;;;65.13;31.77;;;;;;;1.06;85.25;98962.16;5047176;28;20053;-68
2021/12/09 07:32:48;;;;;;;75.72;31.27;;;;;;;1.03;85.94;98977.78;5047267;28;20131;-68
2021/12/09 07:35:15;;;;;;;61.15;29.27;;;;;;;1.01;85.38;98983.03;5047478;28;20540;-66
2021/12/09 07:37:40;;;;;;;68.53;30.67;;;;;;;1.11;85.66;98984.25;5044661;28;20434;-67
2021/12/09 07:40:09;;;;;;;66.20;29.50;;;;;;;1.19;85.49;98996.78;5047232;28;20060;-68
2021/12/09 07:42:35;;;;;;;63.45;30.88;;;;;;;1.18;85.10;98998.50;5043816;28;20513;-67
2021/12/09 07:45:01;;;;;;;71.18;30.73;;;;;;;1.25;84.88;99001.63;5047062;28;20017;-68
2021/12/09 07:47:27;;;;;;;70.55;28.50;;;;;;;1.21;84.50;99000.09;5046089;28;20052;-68
2021/12/09 07:49:52;;;;;;;63.58;29.63;;;;;;;1.22;84.18;98986.28;5047252;28;20051;-68
2021/12/09 07:52:17;;;;;;;62.65;30.52;;;;;;;1.13;84.45;98982.41;5047795;28;20021;-69
2021/12/09 07:54:43;;;;;;;70.72;31.55;;;;;;;1.16;84.47;98984.84;5051676;28;20045;-67
2021/12/09 07:57:08;;;;;;;64.10;29.30;;;;;;;1.15;84.87;98984.91;5050338;28;20021;-67
2021/12/09 07:59:34;;;;;;;63.20;28.35;;;;;;;1.11;84.59;98992.00;5051500;28;20486;-67
2021/12/09 08:02:00;;;;;;;60.63;27.45;;;;;;;1.08;84.49;98988.72;5049198;28;20064;-68
2021/12/09 08:04:25;;;;;;;65.72;28.20;;;;;;;1.10;84.72;98995.47;5051067;28;20033;-68
2021/12/09 08:06:51;;;;;;;68.38;29.77;;;;;;;1.10;84.78;98994.63;5047730;28;20519;-68
2021/12/09 08:09:16;;;;;;;62.50;28.88;;;;;;;1.18;84.82;98992.50;5050275;28;20052;-68
2021/12/09 08:11:43;;;;;;;74.65;32.63;;;;;;;1.24;84.50;98996.53;5050709;28;20108;-69
2021/12/09 08:14:15;;;;;;;71.38;31.35;;;;;;;1.20;84.13;98998.44;5051604;28;20036;-70
2021/12/09 08:16:41;;;;;;;61.97;30.17;;;;;;;1.11;84.49;98993.72;5051582;28;20494;-69
2021/12/09 08:19:11;;;;;;;65.93;30.65;;;;;;;1.14;84.25;99003.91;5052965;28;20036;-68
2021/12/09 08:21:37;;;;;;;66.47;29.65;;;;;;;1.26;84.41;99010.19;5050413;28;20028;-68
2021/12/09 08:24:05;;;;;;;71.15;33.10;;;;;;;1.26;84.20;99002.44;5049184;28;20102;-67
2021/12/09 08:26:30;;;;;;;73.10;34.80;;;;;;;1.16;84.35;98982.28;5050385;28;20041;-68
2021/12/09 08:28:56;;;;;;;76.20;34.15;;;;;;;1.12;84.97;98985.09;5050818;28;20526;-68
2021/12/09 08:31:21;;;;;;;81.82;38.10;;;;;;;1.06;84.56;98983.63;5050674;28;20071;-68
2021/12/09 08:33:47;;;;;;;59.17;29.52;;;;;;;1.18;84.58;98985.59;5050314;28;20063;-69
2021/12/09 08:36:12;;;;;;;71.40;32.58;;;;;;;1.19;84.45;98986.47;5051582;28;20032;-69
2021/12/09 08:38:37;;;;;;;65.68;30.50;;;;;;;1.07;84.21;98976.72;5050486;28;20123;-68
2021/12/09 08:41:04;;;;;;;71.88;33.33;;;;;;;1.03;84.57;98982.94;5050849;28;20047;-68
2021/12/09 08:43:30;;;;;;;61.83;30.85;;;;;;;1.04;84.49;98976.84;5050392;28;20048;-69
2021/12/09 08:45:56;;;;;;;64.70;28.40;;;;;;;1.11;84.09;98971.34;5049801;28;20041;-67
2021/12/09 08:48:23;;;;;;;67.55;30.95;;;;;;;1.31;83.84;98979.84;5050639;28;20025;-67
2021/12/09 08:50:49;;;;;;;72.50;28.73;;;;;;;1.42;83.01;98986.13;5051193;28;20068;-69
2021/12/09 08:53:21;;;;;;;77.43;32.55;;;;;;;1.48;83.47;98992.72;5050237;28;20544;-69
2021/12/09 08:55:47;;;;;;;61.55;30.25;;;;;;;1.57;82.95;98991.44;5049022;28;20180;-69
2021/12/09 08:58:14;;;;;;;73.78;34.08;;;;;;;1.53;82.44;98977.84;5047989;28;20504;-68
2021/12/09 09:00:40;;;;;;;75.28;34.53;;;;;;;1.50;83.17;98972.81;5051018;28;20032;-69
2021/12/09 09:03:06;;;;;;;77.38;32.65;;;;;;;1.60;82.36;98976.63;5051943;28;20017;-69
2021/12/09 09:05:33;;;;;;;72.43;33.45;;;;;;;1.64;82.25;98978.13;5050310;28;20562;-68
2021/12/09 09:07:59;;;;;;;70.18;32.58;;;;;;;1.67;81.76;98990.06;5049367;28;20044;-68
2021/12/09 09:10:26;;;;;;;74.32;34.78;;;;;;;1.56;82.30;99000.06;5050132;28;20448;-68
2021/12/09 09:12:53;;;;;;;80.85;36.13;;;;;;;1.66;81.98;99001.28;5049273;28;20079;-69
2021/12/09 09:15:21;;;;;;;79.35;35.25;;;;;;;1.69;81.81;99006.28;5050992;28;20028;-68
2021/12/09 09:17:48;;;;;;;66.20;31.67;;;;;;;1.73;81.99;99012.13;5049516;28;20487;-68
2021/12/09 09:20:16;;;;;;;70.28;32.33;;;;;;;1.80;81.99;99014.34;5052328;28;20033;-68
2021/12/09 09:22:43;;;;;;;63.53;29.27;;;;;;;1.75;81.73;99023.25;5049525;28;20395;-67
2021/12/09 09:25:14;;;;;;;67.65;30.05;;;;;;;1.69;82.40;99022.63;5050258;28;20116;-70
2021/12/09 09:27:40;;;;;;;65.97;31.08;;;;;;;1.81;81.88;99023.75;5049839;28;20025;-69
2021/12/09 09:30:07;;;;;;;66.18;30.17;;;;;;;1.88;81.49;99021.69;5051018;28;20025;-70
2021/12/09 09:32:33;;;;;;;70.20;31.00;;;;;;;1.95;81.33;99025.63;5050315;28;20056;-69
2021/12/09 09:34:59;;;;;;;64.50;30.00;;;;;;;1.97;80.95;99033.31;5046436;28;20067;-70
2021/12/09 09:37:24;;;;;;;62.97;30.20;;;;;;;1.88;80.53;99048.34;5051098;28;20048;-70
2021/12/09 09:39:50;;;;;;;63.08;29.25;;;;;;;1.87;80.76;99048.44;5050065;28;20056;-68
2021/12/09 09:42:33;;;;;;;65.28;29.92;;;;;;;1.94;81.22;99047.22;5049035;28;20028;-68
2021/12/09 09:44:59;;;;;;;61.38;29.00;;;;;;;1.98;80.86;99042.72;5047560;28;20060;-68
2021/12/09 09:47:26;;;;;;;62.05;29.35;;;;;;;2.04;80.87;99035.50;5050004;28;20025;-73
2021/12/09 09:49:53;;;;;;;66.38;29.70;;;;;;;2.08;80.51;99031.00;5050938;28;20045;-69
2021/12/09 09:52:19;;;;;;;68.18;30.92;;;;;;;2.04;80.64;99040.66;5048724;28;20029;-70
2021/12/09 09:54:45;;;;;;;68.07;29.98;;;;;;;2.07;80.50;99030.16;5048880;28;20037;-67
2021/12/09 09:57:11;;;;;;;66.30;30.08;;;;;;;2.12;80.95;99040.25;5049067;28;20040;-68
2021/12/09 09:59:40;;;;;;;62.05;29.48;;;;;;;2.17;81.11;99038.25;5048826;28;20056;-69
2021/12/09 10:02:05;;;;;;;63.08;29.15;;;;;;;2.19;80.91;99041.63;5048988;28;20029;-68
2021/12/09 10:04:44;;;;;;;64.97;28.60;;;;;;;2.23;80.53;99042.28;5048995;28;20035;-70
2021/12/09 10:07:11;;;;;;;72.50;32.83;;;;;;;2.27;81.13;99036.88;5042274;28;20422;-69
2021/12/09 10:09:36;;;;;;;65.95;29.45;;;;;;;2.26;80.46;99036.94;5046907;28;20028;-70
2021/12/09 10:12:02;;;;;;;59.00;29.88;;;;;;;2.31;80.90;99050.47;5047594;28;20025;-69
2021/12/09 10:14:32;;;;;;;71.65;30.63;;;;;;;2.28;80.38;99050.63;5048437;28;20040;-69
2021/12/09 10:17:12;;;;;;;61.60;29.27;;;;;;;2.34;79.95;99039.97;5058116;28;20029;-69
2021/12/09 10:19:47;;;;;;;72.40;30.05;;;;;;;2.30;80.13;99035.84;5049486;28;20060;-69
2021/12/09 10:22:16;;;;;;;66.53;30.92;;;;;;;2.31;80.67;99028.03;5048519;28;20114;-70
2021/12/09 10:24:43;;;;;;;70.07;32.28;;;;;;;2.34;80.89;99024.44;5048793;28;20116;-69
2021/12/09 10:27:14;;;;;;;66.90;32.10;;;;;;;2.36;80.47;99022.59;5046731;28;20082;-69
2021/12/09 10:29:45;;;;;;;68.05;30.50;;;;;;;2.36;80.60;99014.84;5048426;28;20553;-70
2021/12/09 10:32:20;;;;;;;85.40;32.92;;;;;;;2.30;80.46;99005.69;5048231;28;20064;-70
2021/12/09 10:34:47;;;;;;;67.32;32.00;;;;;;;2.31;80.67;98997.00;5048303;28;20037;-69
2021/12/09 10:37:23;;;;;;;64.95;31.35;;;;;;;2.26;80.66;98993.81;5048436;28;20071;-70
2021/12/09 10:40:11;;;;;;;73.10;32.80;;;;;;;2.25;80.93;98986.13;5048202;28;20025;-69
2021/12/09 10:42:51;;;;;;;70.45;30.55;;;;;;;2.27;79.88;98969.63;5047672;28;20029;-70
2021/12/09 10:45:20;;;;;;;69.57;30.13;;;;;;;2.12;80.89;98979.03;5049405;28;20024;-71
2021/12/09 10:47:59;;;;;;;67.18;30.70;;;;;;;2.14;80.73;98976.38;5048886;28;20029;-70
2021/12/09 10:53:31;;;;;;;63.33;30.65;;;;;;;2.06;80.98;98979.38;5048086;28;19913;-69
2021/12/09 10:56:25;;;;;;;68.53;30.63;;;;;;;1.93;81.62;98968.84;5047848;28;20075;-70
2021/12/09 10:58:51;;;;;;;74.43;30.63;;;;;;;1.85;82.07;98964.97;5046902;28;20037;-69
2021/12/09 11:01:19;;;;;;;72.88;33.67;;;;;;;1.92;81.68;98962.00;5046748;28;20041;-70
2021/12/09 11:03:50;;;;;;;83.05;33.75;;;;;;;1.96;81.58;98956.66;5047603;28;20045;-69
2021/12/09 11:06:21;;;;;;;62.20;31.23;;;;;;;1.93;82.01;98973.19;5048823;28;20029;-68
2021/12/09 11:08:57;;;;;;;69.75;31.80;;;;;;;1.97;81.98;98981.63;5047575;28;20580;-68
2021/12/09 11:11:27;;;;;;;70.38;32.38;;;;;;;2.03;81.91;98989.03;5045349;28;20045;-70
2021/12/09 11:13:56;;;;;;;62.00;30.90;;;;;;;2.03;81.53;98991.63;5047941;28;20057;-69
2021/12/09 11:16:31;;;;;;;73.38;32.38;;;;;;;2.10;81.68;98990.38;5046613;28;21344;-69
2021/12/09 11:19:09;;;;;;;77.10;36.33;;;;;;;2.00;80.85;98987.44;5047888;28;20103;-67
2021/12/09 11:21:41;;;;;;;73.82;33.95;;;;;;;2.05;80.99;99002.72;5048838;28;20029;-69
2021/12/09 11:24:11;;;;;;;76.10;32.80;;;;;;;2.05;81.07;99003.56;5048224;28;20024;-70
2021/12/09 11:29:36;;;;;;;70.32;33.25;;;;;;;2.16;81.00;98992.66;5048862;28;20067;-69
2021/12/09 11:32:12;;;;;;;66.18;31.95;;;;;;;2.18;80.96;98988.22;5043562;28;20036;-70